createdAt,value
2017-06-21T00:00:59.627Z,0
2017-06-21T00:02:09.231Z,0
2017-06-21T00:03:19.630Z,0
2017-06-21T00:04:29.555Z,0
2017-06-21T00:05:39.485Z,0
2017-06-21T00:06:48.791Z,0
2017-06-21T00:07:59.020Z,0
2017-06-21T00:09:08.798Z,0
2017-06-21T00:10:18.727Z,0
2017-06-21T00:11:28.651Z,0
2017-06-21T00:12:38.562Z,0
2017-06-21T00:13:48.473Z,0
2017-06-21T00:14:58.491Z,0
2017-06-21T00:16:08.396Z,0
2017-06-21T00:17:18.007Z,0
2017-06-21T00:18:27.617Z,0
2017-06-21T00:19:37.537Z,0
2017-06-21T00:20:46.841Z,0
2017-06-21T00:21:57.079Z,0
2017-06-21T00:23:07.009Z,0
2017-06-21T00:24:17.240Z,0
2017-06-21T00:25:27.185Z,0
2017-06-21T00:26:37.544Z,0
2017-06-21T00:27:47.800Z,0
2017-06-21T00:28:57.091Z,0
2017-06-21T00:30:07.008Z,0
2017-06-21T00:31:17.228Z,0
2017-06-21T00:32:27.285Z,0
2017-06-21T00:33:37.196Z,0
2017-06-21T00:34:46.503Z,0
2017-06-21T00:35:56.096Z,0
2017-06-21T00:37:06.319Z,0
2017-06-21T00:38:16.223Z,0
2017-06-21T00:39:26.133Z,0
2017-06-21T00:40:36.058Z,0
2017-06-21T00:41:45.977Z,0
2017-06-21T00:42:54.964Z,0
2017-06-21T00:44:04.724Z,0
2017-06-21T00:45:14.646Z,0
2017-06-21T00:46:24.879Z,0
2017-06-21T00:47:35.124Z,0
2017-06-21T00:48:45.048Z,0
2017-06-21T00:49:55.114Z,0
2017-06-21T00:51:05.022Z,0
2017-06-21T00:52:14.947Z,0
2017-06-21T00:53:25.180Z,0
2017-06-21T00:54:35.087Z,0
2017-06-21T00:55:44.860Z,0
2017-06-21T00:56:55.070Z,0
2017-06-21T00:58:05.013Z,0
2017-06-21T00:59:15.253Z,0
2017-06-21T01:00:25.179Z,0
2017-06-21T01:01:35.263Z,0
2017-06-21T01:02:45.174Z,0
2017-06-21T01:03:55.402Z,0
2017-06-21T01:05:05.017Z,0
2017-06-21T01:06:14.934Z,0
2017-06-21T01:07:25.003Z,0
2017-06-21T01:08:34.601Z,0
2017-06-21T01:09:44.839Z,0
2017-06-21T01:10:55.064Z,0
2017-06-21T01:12:04.671Z,0
2017-06-21T01:13:15.024Z,0
2017-06-21T01:14:25.620Z,0
2017-06-21T01:15:35.534Z,0
2017-06-21T01:16:45.454Z,0
2017-06-21T01:17:55.390Z,0
2017-06-21T01:19:04.691Z,0
2017-06-21T01:20:14.917Z,0
2017-06-21T01:21:25.518Z,0
2017-06-21T01:22:35.740Z,0
2017-06-21T01:23:45.975Z,0
2017-06-21T01:24:55.938Z,0
2017-06-21T01:26:05.845Z,0
2017-06-21T01:27:15.466Z,0
2017-06-21T01:28:25.708Z,0
2017-06-21T01:29:35.632Z,0
2017-06-21T01:30:45.476Z,0
2017-06-21T01:31:55.716Z,0
2017-06-21T01:33:05.617Z,0
2017-06-21T01:34:15.237Z,0
2017-06-21T01:35:25.163Z,0
2017-06-21T01:36:35.541Z,0
2017-06-21T01:37:45.141Z,0
2017-06-21T01:38:54.466Z,0
2017-06-21T01:40:04.094Z,0
2017-06-21T01:41:13.999Z,0
2017-06-21T01:42:23.957Z,0
2017-06-21T01:43:34.176Z,0
2017-06-21T01:44:44.074Z,0
2017-06-21T01:45:54.291Z,0
2017-06-21T01:47:04.226Z,0
2017-06-21T01:48:13.885Z,0
2017-06-21T01:49:23.497Z,0
2017-06-21T01:50:33.422Z,0
2017-06-21T01:51:42.782Z,0
2017-06-21T01:52:52.394Z,0
2017-06-21T01:54:02.464Z,0
2017-06-21T01:55:12.075Z,0
2017-06-21T01:56:21.673Z,0
2017-06-21T01:57:31.595Z,0
2017-06-21T01:58:40.898Z,0
2017-06-21T01:59:50.970Z,0
2017-06-21T02:01:01.199Z,0
2017-06-21T02:02:11.122Z,0
2017-06-21T02:03:21.035Z,0
2017-06-21T02:04:30.333Z,0
2017-06-21T02:05:40.241Z,0
2017-06-21T02:06:49.539Z,0
2017-06-21T02:07:59.148Z,0
2017-06-21T02:09:09.074Z,0
2017-06-21T02:10:18.988Z,0
2017-06-21T02:11:28.899Z,0
2017-06-21T02:12:39.133Z,0
2017-06-21T02:13:48.734Z,0
2017-06-21T02:14:58.647Z,0
2017-06-21T02:16:07.954Z,0
2017-06-21T02:17:18.011Z,0
2017-06-21T02:18:27.639Z,0
2017-06-21T02:19:37.562Z,0
2017-06-21T02:20:47.480Z,0
2017-06-21T02:21:57.706Z,0
2017-06-21T02:23:07.971Z,0
2017-06-21T02:24:17.926Z,0
2017-06-21T02:25:27.220Z,0
2017-06-21T02:26:37.447Z,0
2017-06-21T02:27:47.059Z,0
2017-06-21T02:28:56.661Z,0
2017-06-21T02:30:06.906Z,0
2017-06-21T02:31:16.829Z,0
2017-06-21T02:32:26.458Z,0
2017-06-21T02:33:36.671Z,0
2017-06-21T02:34:46.595Z,0
2017-06-21T02:35:56.849Z,0
2017-06-21T02:37:06.472Z,0
2017-06-21T02:38:16.085Z,0
2017-06-21T02:39:25.996Z,0
2017-06-21T02:40:35.707Z,0
2017-06-21T02:41:45.310Z,0
2017-06-21T02:42:55.522Z,0
2017-06-21T02:44:05.434Z,0
2017-06-21T02:45:15.040Z,0
2017-06-21T02:46:24.803Z,0
2017-06-21T02:47:34.407Z,0
2017-06-21T02:48:44.314Z,0
2017-06-21T02:49:54.218Z,0
2017-06-21T02:51:04.456Z,0
2017-06-21T02:52:14.521Z,0
2017-06-21T02:53:24.432Z,0
2017-06-21T02:54:34.340Z,0
2017-06-21T02:55:44.249Z,0
2017-06-21T02:56:53.848Z,0
2017-06-21T02:58:03.755Z,0
2017-06-21T02:59:13.969Z,0
2017-06-21T03:00:23.588Z,0
2017-06-21T03:01:33.490Z,0
2017-06-21T03:02:43.417Z,0
2017-06-21T03:03:53.075Z,0
2017-06-21T03:05:02.993Z,0
2017-06-21T03:06:12.917Z,0
2017-06-21T03:07:23.148Z,0
2017-06-21T03:08:33.369Z,0
2017-06-21T03:09:43.080Z,0
2017-06-21T03:10:52.369Z,0
2017-06-21T03:12:02.598Z,0
2017-06-21T03:13:12.508Z,0
2017-06-21T03:14:22.418Z,0
2017-06-21T03:15:32.473Z,0
2017-06-21T03:16:42.735Z,0
2017-06-21T03:17:52.954Z,0
2017-06-21T03:19:03.171Z,0
2017-06-21T03:20:13.097Z,0
2017-06-21T03:21:23.068Z,0
2017-06-21T03:22:33.285Z,0
2017-06-21T03:23:43.205Z,0
2017-06-21T03:24:53.431Z,0
2017-06-21T03:26:03.667Z,0
2017-06-21T03:27:13.644Z,0
2017-06-21T03:28:23.553Z,0
2017-06-21T03:29:33.487Z,0
2017-06-21T03:30:43.723Z,0
2017-06-21T03:31:53.634Z,0
2017-06-21T03:33:03.855Z,0
2017-06-21T03:34:13.455Z,0
2017-06-21T03:35:23.054Z,0
2017-06-21T03:36:33.290Z,0
2017-06-21T03:37:42.892Z,0
2017-06-21T03:38:52.804Z,0
2017-06-21T03:40:02.712Z,0
2017-06-21T03:41:12.317Z,0
2017-06-21T03:42:22.234Z,0
2017-06-21T03:43:32.147Z,0
2017-06-21T03:44:42.518Z,0
2017-06-21T03:45:52.124Z,0
2017-06-21T03:47:02.345Z,0
2017-06-21T03:48:12.304Z,0
2017-06-21T03:49:22.204Z,0
2017-06-21T03:50:32.563Z,0
2017-06-21T03:51:42.486Z,0
2017-06-21T03:52:52.397Z,0
2017-06-21T03:54:02.022Z,0
2017-06-21T03:55:11.931Z,0
2017-06-21T03:56:21.837Z,0
2017-06-21T03:57:31.451Z,0
2017-06-21T03:58:41.361Z,0
2017-06-21T03:59:50.969Z,0
2017-06-21T04:01:00.640Z,0
2017-06-21T04:02:11.019Z,5
2017-06-21T04:03:20.948Z,5
2017-06-21T04:04:31.184Z,5
2017-06-21T04:05:41.091Z,5
2017-06-21T04:06:50.411Z,5
2017-06-21T04:08:00.473Z,5
2017-06-21T04:09:10.687Z,5
2017-06-21T04:10:20.599Z,5
2017-06-21T04:11:31.188Z,5
2017-06-21T04:12:41.093Z,5
2017-06-21T04:13:51.429Z,5
2017-06-21T04:15:01.361Z,5
2017-06-21T04:16:11.584Z,5
2017-06-21T04:17:21.207Z,5
2017-06-21T04:18:31.134Z,5
2017-06-21T04:19:41.054Z,5
2017-06-21T04:20:50.659Z,5
2017-06-21T04:22:00.872Z,5
2017-06-21T04:23:10.486Z,10
2017-06-21T04:24:20.458Z,10
2017-06-21T04:25:30.524Z,10
2017-06-21T04:26:40.744Z,10
2017-06-21T04:27:50.664Z,10
2017-06-21T04:29:00.267Z,10
2017-06-21T04:30:09.870Z,10
2017-06-21T04:31:19.623Z,10
2017-06-21T04:32:29.855Z,10
2017-06-21T04:33:39.472Z,10
2017-06-21T04:34:49.686Z,10
2017-06-21T04:35:59.910Z,10
2017-06-21T04:37:09.860Z,10
2017-06-21T04:38:19.475Z,10
2017-06-21T04:39:28.770Z,10
2017-06-21T04:40:38.388Z,10
2017-06-21T04:41:48.309Z,10
2017-06-21T04:42:57.931Z,10
2017-06-21T04:44:07.238Z,10
2017-06-21T04:45:17.453Z,10
2017-06-21T04:46:27.433Z,10
2017-06-21T04:47:37.360Z,10
2017-06-21T04:48:47.459Z,10
2017-06-21T04:49:57.698Z,10
2017-06-21T04:51:07.619Z,10
2017-06-21T04:52:17.532Z,10
2017-06-21T04:53:27.440Z,10
2017-06-21T04:54:37.500Z,10
2017-06-21T04:55:47.723Z,15
2017-06-21T04:56:57.638Z,10
2017-06-21T04:58:07.568Z,10
2017-06-21T04:59:16.863Z,10
2017-06-21T05:00:26.951Z,10
2017-06-21T05:01:36.863Z,10
2017-06-21T05:02:46.462Z,10
2017-06-21T05:03:56.689Z,10
2017-06-21T05:05:06.610Z,10
2017-06-21T05:06:16.526Z,10
2017-06-21T05:07:26.438Z,10
2017-06-21T05:08:36.676Z,15
2017-06-21T05:09:46.323Z,15
2017-06-21T05:10:55.922Z,15
2017-06-21T05:12:05.982Z,15
2017-06-21T05:13:15.895Z,15
2017-06-21T05:14:25.817Z,15
2017-06-21T05:15:35.735Z,15
2017-06-21T05:16:45.349Z,20
2017-06-21T05:17:55.412Z,20
2017-06-21T05:19:05.317Z,20
2017-06-21T05:20:15.542Z,25
2017-06-21T05:21:25.451Z,25
2017-06-21T05:22:35.391Z,25
2017-06-21T05:23:45.716Z,30
2017-06-21T05:24:55.036Z,35
2017-06-21T05:26:05.297Z,35
2017-06-21T05:27:14.928Z,35
2017-06-21T05:28:25.163Z,35
2017-06-21T05:29:34.476Z,35
2017-06-21T05:30:44.736Z,35
2017-06-21T05:31:54.371Z,40
2017-06-21T05:33:04.599Z,35
2017-06-21T05:34:14.245Z,35
2017-06-21T05:35:24.274Z,40
2017-06-21T05:36:34.518Z,45
2017-06-21T05:37:44.156Z,45
2017-06-21T05:38:53.474Z,45
2017-06-21T05:40:02.776Z,45
2017-06-21T05:41:12.851Z,45
2017-06-21T05:42:22.468Z,45
2017-06-21T05:43:32.683Z,45
2017-06-21T05:44:42.924Z,45
2017-06-21T05:45:52.884Z,45
2017-06-21T05:47:02.658Z,45
2017-06-21T05:48:12.261Z,40
2017-06-21T05:49:22.522Z,40
2017-06-21T05:50:32.444Z,40
2017-06-21T05:51:42.684Z,40
2017-06-21T05:52:52.630Z,40
2017-06-21T05:54:02.890Z,45
2017-06-21T05:55:12.500Z,40
2017-06-21T05:56:22.439Z,45
2017-06-21T05:57:32.676Z,45
2017-06-21T05:58:42.287Z,50
2017-06-21T05:59:52.204Z,45
2017-06-21T06:01:02.429Z,45
2017-06-21T06:02:12.671Z,45
2017-06-21T06:03:22.583Z,45
2017-06-21T06:04:32.569Z,45
2017-06-21T06:05:42.500Z,40
2017-06-21T06:06:52.407Z,40
2017-06-21T06:08:02.319Z,40
2017-06-21T06:09:11.929Z,45
2017-06-21T06:10:21.863Z,50
2017-06-21T06:11:31.480Z,50
2017-06-21T06:12:41.703Z,50
2017-06-21T06:13:51.621Z,50
2017-06-21T06:15:01.562Z,50
2017-06-21T06:16:12.147Z,55
2017-06-21T06:17:22.065Z,45
2017-06-21T06:18:32.007Z,55
2017-06-21T06:19:41.946Z,55
2017-06-21T06:20:51.876Z,55
2017-06-21T06:22:01.554Z,55
2017-06-21T06:23:11.782Z,55
2017-06-21T06:24:21.695Z,55
2017-06-21T06:25:31.316Z,55
2017-06-21T06:26:40.932Z,60
2017-06-21T06:27:50.942Z,60
2017-06-21T06:29:01.179Z,60
2017-06-21T06:30:11.100Z,60
2017-06-21T06:31:21.323Z,60
2017-06-21T06:32:31.237Z,60
2017-06-21T06:33:41.159Z,60
2017-06-21T06:34:51.404Z,60
2017-06-21T06:36:01.019Z,65
2017-06-21T06:37:11.245Z,65
2017-06-21T06:38:21.178Z,65
2017-06-21T06:39:31.571Z,65
2017-06-21T06:40:41.483Z,65
2017-06-21T06:41:51.411Z,65
2017-06-21T06:43:00.720Z,65
2017-06-21T06:44:10.658Z,75
2017-06-21T06:45:20.327Z,70
2017-06-21T06:46:30.248Z,65
2017-06-21T06:47:39.856Z,70
2017-06-21T06:48:49.471Z,70
2017-06-21T06:49:59.693Z,70
2017-06-21T06:51:10.067Z,70
2017-06-21T06:52:20.012Z,70
2017-06-21T06:53:30.243Z,70
2017-06-21T06:54:39.928Z,70
2017-06-21T06:55:50.157Z,65
2017-06-21T06:57:00.483Z,60
2017-06-21T06:58:10.701Z,60
2017-06-21T06:59:20.311Z,50
2017-06-21T07:00:30.561Z,70
2017-06-21T07:01:40.486Z,75
2017-06-21T07:02:49.896Z,75
2017-06-21T07:03:59.893Z,75
2017-06-21T07:05:09.210Z,75
2017-06-21T07:06:19.692Z,75
2017-06-21T07:07:29.303Z,80
2017-06-21T07:08:39.368Z,85
2017-06-21T07:09:49.306Z,85
2017-06-21T07:10:58.924Z,95
2017-06-21T07:12:09.161Z,95
2017-06-21T07:13:18.840Z,100
2017-06-21T07:14:28.299Z,110
2017-06-21T07:15:37.979Z,130
2017-06-21T07:16:47.606Z,155
2017-06-21T07:17:57.526Z,275
2017-06-21T07:19:07.748Z,420
2017-06-21T07:20:17.840Z,535
2017-06-21T07:21:27.468Z,505
2017-06-21T07:22:37.401Z,280
2017-06-21T07:23:47.324Z,120
2017-06-21T07:24:57.547Z,110
2017-06-21T07:26:07.323Z,105
2017-06-21T07:27:16.955Z,105
2017-06-21T07:28:27.218Z,105
2017-06-21T07:29:37.157Z,105
2017-06-21T07:30:47.102Z,110
2017-06-21T07:31:57.435Z,115
2017-06-21T07:33:07.365Z,115
2017-06-21T07:34:17.017Z,120
2017-06-21T07:35:26.954Z,125
2017-06-21T07:36:37.175Z,135
2017-06-21T07:37:47.467Z,140
2017-06-21T07:38:57.691Z,140
2017-06-21T07:40:07.611Z,145
2017-06-21T07:41:17.226Z,145
2017-06-21T07:42:27.458Z,150
2017-06-21T07:43:37.686Z,150
2017-06-21T07:44:47.617Z,155
2017-06-21T07:45:57.230Z,155
2017-06-21T07:47:06.247Z,165
2017-06-21T07:48:15.858Z,170
2017-06-21T07:49:26.535Z,180
2017-06-21T07:50:36.762Z,195
2017-06-21T07:51:46.693Z,210
2017-06-21T07:52:56.615Z,280
2017-06-21T07:54:06.885Z,450
2017-06-21T07:55:16.878Z,720
2017-06-21T07:56:27.115Z,845
2017-06-21T07:57:37.037Z,860
2017-06-21T07:58:46.657Z,950
2017-06-21T07:59:56.581Z,970
2017-06-21T08:01:06.339Z,845
2017-06-21T08:02:16.567Z,845
2017-06-21T08:03:26.499Z,920
2017-06-21T08:04:36.421Z,1005
2017-06-21T08:05:46.654Z,975
2017-06-21T08:06:56.267Z,915
2017-06-21T08:08:06.184Z,985
2017-06-21T08:09:16.102Z,1000
2017-06-21T08:10:26.030Z,1060
2017-06-21T08:11:35.643Z,1060
2017-06-21T08:12:45.709Z,1045
2017-06-21T08:13:55.646Z,1055
2017-06-21T08:15:04.956Z,1015
2017-06-21T08:16:15.223Z,1005
2017-06-21T08:17:25.156Z,905
2017-06-21T08:18:35.540Z,960
2017-06-21T08:19:45.478Z,935
2017-06-21T08:20:55.698Z,1045
2017-06-21T08:22:05.309Z,1005
2017-06-21T08:23:15.236Z,835
2017-06-21T08:24:25.207Z,965
2017-06-21T08:25:34.818Z,980
2017-06-21T08:26:44.418Z,890
2017-06-21T08:27:53.722Z,945
2017-06-21T08:29:03.960Z,1050
2017-06-21T08:30:13.932Z,1045
2017-06-21T08:31:23.849Z,950
2017-06-21T08:32:33.770Z,960
2017-06-21T08:33:43.701Z,895
2017-06-21T08:34:52.999Z,915
2017-06-21T08:36:02.936Z,935
2017-06-21T08:37:13.158Z,945
2017-06-21T08:38:22.772Z,975
2017-06-21T08:39:32.067Z,940
2017-06-21T08:40:42.343Z,1045
2017-06-21T08:41:52.382Z,1055
2017-06-21T08:43:01.708Z,930
2017-06-21T08:44:11.958Z,940
2017-06-21T08:45:21.894Z,970
2017-06-21T08:46:32.145Z,825
2017-06-21T08:47:42.165Z,445
2017-06-21T08:48:52.122Z,150
2017-06-21T08:50:02.370Z,110
2017-06-21T08:51:12.284Z,90
2017-06-21T08:52:22.208Z,80
2017-06-21T08:53:31.923Z,75
2017-06-21T08:54:42.151Z,65
2017-06-21T08:55:52.083Z,65
2017-06-21T08:57:01.702Z,60
2017-06-21T08:58:11.628Z,55
2017-06-21T08:59:21.569Z,55
2017-06-21T09:00:31.519Z,55
2017-06-21T09:01:41.443Z,50
2017-06-21T09:02:51.372Z,50
2017-06-21T09:04:00.989Z,50
2017-06-21T09:05:10.763Z,50
2017-06-21T09:06:20.377Z,45
2017-06-21T09:07:30.622Z,45
2017-06-21T09:08:40.591Z,45
2017-06-21T09:09:50.896Z,45
2017-06-21T09:11:00.607Z,45
2017-06-21T09:12:10.528Z,45
2017-06-21T09:13:20.755Z,45
2017-06-21T09:14:30.379Z,45
2017-06-21T09:15:40.308Z,45
2017-06-21T09:16:50.702Z,45
2017-06-21T09:18:00.019Z,45
2017-06-21T09:19:10.239Z,45
2017-06-21T09:20:19.868Z,45
2017-06-21T09:21:29.795Z,45
2017-06-21T09:22:39.724Z,45
2017-06-21T09:23:49.351Z,45
2017-06-21T09:24:58.994Z,45
2017-06-21T09:26:08.927Z,45
2017-06-21T09:27:19.157Z,45
2017-06-21T09:28:28.838Z,45
2017-06-21T09:29:38.755Z,45
2017-06-21T09:30:48.682Z,45
2017-06-21T09:31:58.912Z,40
2017-06-21T09:33:08.849Z,40
2017-06-21T09:34:18.868Z,40
2017-06-21T09:35:28.484Z,40
2017-06-21T09:36:38.388Z,40
2017-06-21T09:37:48.301Z,35
2017-06-21T09:38:57.925Z,35
2017-06-21T09:40:08.156Z,35
2017-06-21T09:41:17.769Z,35
2017-06-21T09:42:27.997Z,35
2017-06-21T09:43:38.230Z,35
2017-06-21T09:44:48.166Z,35
2017-06-21T09:45:58.499Z,35
2017-06-21T09:47:07.816Z,35
2017-06-21T09:48:18.046Z,35
2017-06-21T09:49:28.273Z,35
2017-06-21T09:50:38.499Z,35
2017-06-21T09:51:48.882Z,30
2017-06-21T09:52:58.496Z,30
2017-06-21T09:54:08.126Z,30
2017-06-21T09:55:18.364Z,30
2017-06-21T09:56:28.594Z,30
2017-06-21T09:57:38.354Z,30
2017-06-21T09:58:47.968Z,30
2017-06-21T09:59:58.233Z,30
2017-06-21T10:01:08.149Z,30
2017-06-21T10:02:17.755Z,30
2017-06-21T10:03:28.134Z,30
2017-06-21T10:04:38.360Z,30
2017-06-21T10:05:48.284Z,30
2017-06-21T10:06:58.313Z,30
2017-06-21T10:08:08.254Z,30
2017-06-21T10:09:18.285Z,30
2017-06-21T10:10:28.210Z,30
2017-06-21T10:11:38.135Z,25
2017-06-21T10:12:48.052Z,25
2017-06-21T10:13:58.001Z,25
2017-06-21T10:15:07.059Z,25
2017-06-21T10:16:16.682Z,25
2017-06-21T10:17:26.608Z,25
2017-06-21T10:18:35.917Z,25
2017-06-21T10:19:45.547Z,25
2017-06-21T10:20:55.733Z,25
2017-06-21T10:22:05.657Z,25
2017-06-21T10:23:15.897Z,20
2017-06-21T10:24:26.126Z,20
2017-06-21T10:25:36.377Z,20
2017-06-21T10:26:46.673Z,20
2017-06-21T10:27:56.601Z,20
2017-06-21T10:29:06.528Z,20
2017-06-21T10:30:16.451Z,20
2017-06-21T10:31:26.069Z,20
2017-06-21T10:32:36.145Z,20
2017-06-21T10:33:45.764Z,20
2017-06-21T10:34:56.009Z,20
2017-06-21T10:36:06.257Z,20
2017-06-21T10:37:15.868Z,20
2017-06-21T10:38:25.953Z,20
2017-06-21T10:39:36.185Z,20
2017-06-21T10:40:46.482Z,20
2017-06-21T10:41:55.794Z,20
2017-06-21T10:43:05.411Z,20
2017-06-21T10:44:15.498Z,20
2017-06-21T10:45:25.412Z,20
2017-06-21T10:46:35.358Z,20
2017-06-21T10:47:45.284Z,20
2017-06-21T10:48:55.205Z,20
2017-06-21T10:50:05.274Z,20
2017-06-21T10:51:14.928Z,20
2017-06-21T10:52:23.938Z,20
2017-06-21T10:53:33.868Z,20
2017-06-21T10:54:43.478Z,20
2017-06-21T10:55:53.744Z,20
2017-06-21T10:57:03.368Z,15
2017-06-21T10:58:12.679Z,15
2017-06-21T10:59:22.320Z,15
2017-06-21T11:00:32.270Z,15
2017-06-21T11:01:42.039Z,15
2017-06-21T11:02:51.652Z,15
2017-06-21T11:04:01.583Z,15
2017-06-21T11:05:10.897Z,15
2017-06-21T11:06:20.509Z,15
2017-06-21T11:07:30.820Z,15
2017-06-21T11:08:40.114Z,15
2017-06-21T11:09:50.036Z,15
2017-06-21T11:10:59.655Z,15
2017-06-21T11:12:09.601Z,15
2017-06-21T11:13:19.840Z,15
2017-06-21T11:14:30.067Z,15
2017-06-21T11:15:39.674Z,15
2017-06-21T11:16:49.596Z,15
2017-06-21T11:17:59.825Z,15
2017-06-21T11:19:10.072Z,15
2017-06-21T11:20:20.011Z,15
2017-06-21T11:21:29.629Z,15
2017-06-21T11:22:39.543Z,15
2017-06-21T11:23:49.467Z,15
2017-06-21T11:24:58.470Z,15
2017-06-21T11:26:08.387Z,15
2017-06-21T11:27:18.318Z,15
2017-06-21T11:28:28.246Z,15
2017-06-21T11:29:37.545Z,15
2017-06-21T11:30:46.652Z,15
2017-06-21T11:31:56.566Z,15
2017-06-21T11:33:06.179Z,15
2017-06-21T11:34:15.497Z,15
2017-06-21T11:35:25.729Z,15
2017-06-21T11:36:35.703Z,15
2017-06-21T11:37:45.007Z,15
2017-06-21T11:38:54.619Z,15
2017-06-21T11:40:03.924Z,15
2017-06-21T11:41:14.146Z,15
2017-06-21T11:42:25.223Z,15
2017-06-21T11:43:34.890Z,15
2017-06-21T11:44:45.142Z,15
2017-06-21T11:45:54.469Z,15
2017-06-21T11:47:03.802Z,15
2017-06-21T11:48:14.096Z,15
2017-06-21T11:49:24.338Z,15
2017-06-21T11:50:34.586Z,15
2017-06-21T11:51:44.530Z,15
2017-06-21T11:52:54.468Z,10
2017-06-21T11:54:03.897Z,15
2017-06-21T11:55:13.818Z,15
2017-06-21T11:56:23.448Z,15
2017-06-21T11:57:33.069Z,15
2017-06-21T11:58:42.083Z,15
2017-06-21T11:59:51.861Z,15
2017-06-21T12:01:01.476Z,15
2017-06-21T12:02:11.090Z,15
2017-06-21T12:03:21.042Z,15
2017-06-21T12:04:30.679Z,15
2017-06-21T12:05:40.460Z,15
2017-06-21T12:06:49.804Z,15
2017-06-21T12:07:59.421Z,15
2017-06-21T12:09:08.725Z,15
2017-06-21T12:10:18.019Z,15
2017-06-21T12:11:27.792Z,10
2017-06-21T12:12:37.420Z,10
2017-06-21T12:13:47.023Z,10
2017-06-21T12:14:56.959Z,10
2017-06-21T12:16:05.972Z,15
2017-06-21T12:17:15.955Z,15
2017-06-21T12:18:25.283Z,15
2017-06-21T12:19:34.601Z,15
2017-06-21T12:20:43.917Z,15
2017-06-21T12:21:53.561Z,15
2017-06-21T12:23:03.251Z,15
2017-06-21T12:24:12.897Z,15
2017-06-21T12:25:22.214Z,10
2017-06-21T12:26:31.543Z,10
2017-06-21T12:27:41.483Z,10
2017-06-21T12:28:50.814Z,10
2017-06-21T12:30:00.133Z,10
2017-06-21T12:31:09.779Z,10
2017-06-21T12:32:19.429Z,10
2017-06-21T12:33:29.069Z,10
2017-06-21T12:34:38.529Z,10
2017-06-21T12:35:48.138Z,10
2017-06-21T12:36:58.063Z,10
2017-06-21T12:38:07.981Z,15
2017-06-21T12:39:17.592Z,15
2017-06-21T12:40:27.523Z,15
2017-06-21T12:41:37.474Z,10
2017-06-21T12:42:47.105Z,10
2017-06-21T12:43:57.342Z,10
2017-06-21T12:45:07.278Z,10
2017-06-21T12:46:17.288Z,10
2017-06-21T12:47:27.202Z,10
2017-06-21T12:48:37.119Z,10
2017-06-21T12:49:47.348Z,10
2017-06-21T12:50:57.268Z,10
2017-06-21T12:52:07.046Z,10
2017-06-21T12:53:16.361Z,10
2017-06-21T12:54:26.357Z,10
2017-06-21T12:55:36.295Z,10
2017-06-21T12:56:45.596Z,10
2017-06-21T12:57:54.959Z,10
2017-06-21T12:59:04.888Z,10
2017-06-21T13:00:14.220Z,10
2017-06-21T13:01:23.843Z,10
2017-06-21T13:02:33.455Z,10
2017-06-21T13:03:43.128Z,10
2017-06-21T13:04:53.057Z,10
2017-06-21T13:06:02.674Z,10
2017-06-21T13:07:12.908Z,10
2017-06-21T13:08:22.837Z,10
2017-06-21T13:09:32.614Z,10
2017-06-21T13:10:41.926Z,10
2017-06-21T13:11:52.151Z,10
2017-06-21T13:13:02.392Z,10
2017-06-21T13:14:12.316Z,10
2017-06-21T13:15:22.104Z,10
2017-06-21T13:16:32.021Z,10
2017-06-21T13:17:41.633Z,10
2017-06-21T13:18:51.242Z,10
2017-06-21T13:20:01.174Z,10
2017-06-21T13:21:11.253Z,10
2017-06-21T13:22:21.175Z,10
2017-06-21T13:23:31.397Z,10
2017-06-21T13:24:41.330Z,10
2017-06-21T13:25:50.959Z,10
2017-06-21T13:27:00.885Z,10
2017-06-21T13:28:11.103Z,10
2017-06-21T13:29:21.356Z,10
2017-06-21T13:30:31.594Z,10
2017-06-21T13:31:41.507Z,10
2017-06-21T13:32:51.743Z,10
2017-06-21T13:34:01.054Z,10
2017-06-21T13:35:10.699Z,10
2017-06-21T13:36:20.622Z,10
2017-06-21T13:37:30.546Z,10
2017-06-21T13:38:40.216Z,10
2017-06-21T13:39:50.334Z,10
2017-06-21T13:40:59.663Z,10
2017-06-21T13:42:09.280Z,10
2017-06-21T13:43:19.504Z,10
2017-06-21T13:44:29.521Z,10
2017-06-21T13:45:39.479Z,10
2017-06-21T13:46:49.396Z,10
2017-06-21T13:47:59.624Z,10
2017-06-21T13:49:09.548Z,10
2017-06-21T13:50:19.627Z,10
2017-06-21T13:51:29.241Z,10
2017-06-21T13:52:39.483Z,10
2017-06-21T13:53:49.406Z,10
2017-06-21T13:54:59.337Z,10
2017-06-21T13:56:09.685Z,10
2017-06-21T13:57:19.928Z,10
2017-06-21T13:58:29.248Z,10
2017-06-21T13:59:39.491Z,10
2017-06-21T14:00:49.417Z,10
2017-06-21T14:01:59.181Z,10
2017-06-21T14:03:09.453Z,10
2017-06-21T14:04:19.073Z,10
2017-06-21T14:05:28.690Z,10
2017-06-21T14:06:38.002Z,10
2017-06-21T14:07:48.087Z,15
2017-06-21T14:08:57.718Z,15
2017-06-21T14:10:07.957Z,15
2017-06-21T14:11:17.590Z,15
2017-06-21T14:12:27.521Z,15
2017-06-21T14:13:37.891Z,15
2017-06-21T14:14:48.126Z,15
2017-06-21T14:15:58.361Z,15
2017-06-21T14:17:08.291Z,15
2017-06-21T14:18:18.226Z,15
2017-06-21T14:19:28.293Z,15
2017-06-21T14:20:37.913Z,15
2017-06-21T14:21:48.133Z,15
2017-06-21T14:22:58.385Z,15
2017-06-21T14:24:08.312Z,15
2017-06-21T14:25:17.622Z,15
2017-06-21T14:26:27.244Z,15
2017-06-21T14:27:37.212Z,15
2017-06-21T14:28:47.149Z,15
2017-06-21T14:29:57.102Z,15
2017-06-21T14:31:07.491Z,15
2017-06-21T14:32:17.433Z,15
2017-06-21T14:33:27.661Z,15
2017-06-21T14:34:37.893Z,15
2017-06-21T14:35:47.863Z,15
2017-06-21T14:36:57.947Z,15
2017-06-21T14:38:07.273Z,15
2017-06-21T14:39:16.956Z,15
2017-06-21T14:40:26.947Z,15
2017-06-21T14:41:36.864Z,15
2017-06-21T14:42:46.869Z,15
2017-06-21T14:43:56.833Z,15
2017-06-21T14:45:06.476Z,15
2017-06-21T14:46:16.101Z,15
2017-06-21T14:47:26.045Z,15
2017-06-21T14:48:35.767Z,15
2017-06-21T14:49:45.398Z,15
2017-06-21T14:50:55.322Z,10
2017-06-21T14:52:04.966Z,10
2017-06-21T14:53:14.887Z,10
2017-06-21T14:54:24.971Z,10
2017-06-21T14:55:34.597Z,10
2017-06-21T14:56:44.216Z,10
2017-06-21T14:57:54.486Z,10
2017-06-21T14:59:04.448Z,10
2017-06-21T15:00:14.489Z,10
2017-06-21T15:01:24.424Z,10
2017-06-21T15:02:34.365Z,10
2017-06-21T15:03:44.312Z,10
2017-06-21T15:04:54.244Z,10
2017-06-21T15:06:04.074Z,5
2017-06-21T15:07:13.708Z,5
2017-06-21T15:08:23.945Z,5
2017-06-21T15:09:34.216Z,5
2017-06-21T15:10:44.451Z,5
2017-06-21T15:11:53.875Z,5
2017-06-21T15:13:03.491Z,5
2017-06-21T15:14:12.832Z,5
2017-06-21T15:15:22.139Z,5
2017-06-21T15:16:31.759Z,5
2017-06-21T15:17:41.067Z,5
2017-06-21T15:18:50.063Z,5
2017-06-21T15:19:59.717Z,5
2017-06-21T15:21:09.038Z,5
2017-06-21T15:22:18.341Z,5
2017-06-21T15:23:27.339Z,5
2017-06-21T15:24:36.377Z,5
2017-06-21T15:25:45.442Z,5
2017-06-21T15:26:54.754Z,5
2017-06-21T15:28:04.065Z,5
2017-06-21T15:29:13.668Z,5
2017-06-21T15:30:22.681Z,5
2017-06-21T15:31:32.608Z,5
2017-06-21T15:32:41.915Z,5
2017-06-21T15:33:51.859Z,5
2017-06-21T15:35:01.966Z,5
2017-06-21T15:36:10.962Z,5
2017-06-21T15:37:20.572Z,5
2017-06-21T15:38:30.505Z,5
2017-06-21T15:39:40.124Z,5
2017-06-21T15:40:50.210Z,5
2017-06-21T15:41:59.815Z,5
2017-06-21T15:43:09.427Z,5
2017-06-21T15:44:18.740Z,5
2017-06-21T15:45:28.972Z,5
2017-06-21T15:46:38.321Z,5
2017-06-21T15:47:48.240Z,5
2017-06-21T15:48:57.848Z,5
2017-06-21T15:50:07.173Z,5
2017-06-21T15:51:17.636Z,5
2017-06-21T15:52:27.292Z,5
2017-06-21T15:53:37.217Z,5
2017-06-21T15:54:47.153Z,5
2017-06-21T15:55:56.779Z,5
2017-06-21T15:57:06.736Z,5
2017-06-21T15:58:17.025Z,5
2017-06-21T15:59:26.948Z,5
2017-06-21T16:00:36.570Z,5
2017-06-21T16:01:46.498Z,5
2017-06-21T16:02:56.439Z,5
2017-06-21T16:04:06.459Z,5
2017-06-21T16:05:16.393Z,5
2017-06-21T16:06:26.323Z,5
2017-06-21T16:07:36.573Z,5
2017-06-21T16:08:45.895Z,5
2017-06-21T16:09:56.113Z,5
2017-06-21T16:11:06.035Z,5
2017-06-21T16:12:15.658Z,5
2017-06-21T16:13:25.600Z,5
2017-06-21T16:14:35.239Z,5
2017-06-21T16:15:45.326Z,5
2017-06-21T16:16:55.268Z,5
2017-06-21T16:18:05.180Z,5
2017-06-21T16:19:14.798Z,5
2017-06-21T16:20:25.030Z,5
2017-06-21T16:21:34.816Z,5
2017-06-21T16:22:44.762Z,5
2017-06-21T16:23:54.363Z,5
2017-06-21T16:25:04.037Z,5
2017-06-21T16:26:13.959Z,5
2017-06-21T16:27:24.265Z,5
2017-06-21T16:28:34.500Z,5
2017-06-21T16:29:43.805Z,5
2017-06-21T16:30:53.433Z,5
2017-06-21T16:32:03.668Z,5
2017-06-21T16:33:13.909Z,5
2017-06-21T16:34:24.152Z,5
2017-06-21T16:35:33.458Z,5
2017-06-21T16:36:43.672Z,5
2017-06-21T16:37:53.588Z,5
2017-06-21T16:39:03.568Z,5
2017-06-21T16:40:13.862Z,5
2017-06-21T16:41:24.096Z,5
2017-06-21T16:42:34.020Z,5
2017-06-21T16:43:43.644Z,5
2017-06-21T16:44:53.567Z,5
2017-06-21T16:46:03.484Z,5